Time;durP1;ratioP1;P1;durP2;ratioP2;P2;SDS_P1;SDS_P2;PMS_P1;PMS_P2;Temp;Humidity;BMP_temperature;BMP_pressure;BME280_temperature;BME280_humidity;BME280_pressure;Samples;Min_cycle;Max_cycle;Signal;HPM_P1;HPM_P2
2023/10/14 00:00:25;;;;;;;0.45;0.45;;;;;;;15.51;100.00;95349.19;1019035;29;20043;-76
2023/10/14 00:00:55;;;;;;;0.20;0.20;;;;;;;15.55;100.00;95357.28;1018878;29;20038;-76
2023/10/14 00:01:30;;;;;;;0.05;0.05;;;;;;;15.51;100.00;95354.47;1017608;29;20047;-78
2023/10/14 00:02:08;;;;;;;0.90;0.57;;;;;;;15.52;100.00;95352.59;1026907;28;20038;-74
2023/10/14 00:02:40;;;;;;;0.47;0.47;;;;;;;15.50;100.00;95357.44;1026047;28;20086;-76
2023/10/14 00:03:29;;;;;;;2.33;1.45;;;;;;;15.52;100.00;95357.91;1026882;28;20030;-76
2023/10/14 00:04:02;;;;;;;1.10;1.00;;;;;;;15.49;100.00;95350.56;1023215;28;20139;-76
2023/10/14 00:04:33;;;;;;;0.63;0.63;;;;;;;15.49;100.00;95355.84;1026659;28;20069;-74
2023/10/14 00:05:05;;;;;;;0.10;0.10;;;;;;;15.49;100.00;95353.22;1023916;28;20058;-76
2023/10/14 00:05:35;;;;;;;0.10;0.10;;;;;;;15.43;100.00;95351.81;1025951;28;20046;-78
2023/10/14 00:06:06;;;;;;;0.20;0.20;;;;;;;15.46;100.00;95357.25;1017966;29;20027;-76
2023/10/14 00:06:39;;;;;;;2.53;0.50;;;;;;;15.46;100.00;95353.81;1021018;29;20106;-77
2023/10/14 00:07:11;;;;;;;0.40;0.25;;;;;;;15.37;100.00;95345.84;1019044;29;20058;-76
2023/10/14 00:07:42;;;;;;;0.00;0.00;;;;;;;15.28;100.00;95332.56;1023689;28;20055;-77
2023/10/14 00:08:13;;;;;;;0.30;0.30;;;;;;;15.45;100.00;95350.38;1024549;28;20042;-75
2023/10/14 00:09:01;;;;;;;0.05;0.05;;;;;;;15.42;100.00;95344.94;1019052;29;20032;-74
2023/10/14 00:09:35;;;;;;;0.10;0.10;;;;;;;15.43;100.00;95351.81;1019072;29;20039;-73
2023/10/14 00:10:06;;;;;;;0.57;0.52;;;;;;;15.28;100.00;95335.22;1025873;28;20039;-76
2023/10/14 00:10:37;;;;;;;0.38;0.38;;;;;;;15.44;100.00;95353.34;1030069;28;20030;-76
2023/10/14 00:11:07;;;;;;;0.75;0.75;;;;;;;15.38;100.00;95343.97;1028162;28;20038;-75
2023/10/14 00:11:43;;;;;;;2.20;0.50;;;;;;;15.37;100.00;95347.72;1021232;29;20027;-77
2023/10/14 00:12:14;;;;;;;1.23;1.08;;;;;;;15.39;100.00;95343.69;1014867;29;20032;-76
2023/10/14 00:12:52;;;;;;;0.05;0.05;;;;;;;15.42;100.00;95343.06;1018492;29;20039;-77
2023/10/14 00:13:30;;;;;;;0.93;0.85;;;;;;;15.45;100.00;95347.75;1018742;29;20042;-73
2023/10/14 00:14:02;;;;;;;1.25;0.93;;;;;;;15.44;100.00;95345.41;1011174;29;20024;-74
2023/10/14 00:14:33;;;;;;;0.63;0.63;;;;;;;15.46;100.00;95348.53;1014852;29;20024;-75
2023/10/14 00:15:05;;;;;;;0.32;0.32;;;;;;;15.44;100.00;95350.72;1017145;29;20032;-76
2023/10/14 00:15:35;;;;;;;0.00;0.00;;;;;;;15.36;100.00;95335.56;1015496;29;20034;-74
2023/10/14 00:16:20;;;;;;;0.22;0.22;;;;;;;15.41;100.00;95348.66;1015224;29;20043;-78
2023/10/14 00:16:51;;;;;;;1.00;0.63;;;;;;;15.42;100.00;95344.94;1018864;29;20059;-74
2023/10/14 00:17:22;;;;;;;0.03;0.03;;;;;;;15.43;100.00;95347.28;1022874;29;20027;-75
2023/10/14 00:17:52;;;;;;;1.48;0.43;;;;;;;15.43;100.00;95344.66;1015078;29;20032;-75
2023/10/14 00:18:24;;;;;;;1.17;0.95;;;;;;;15.45;100.00;95344.31;1018467;29;20040;-75
2023/10/14 00:19:04;;;;;;;6.28;1.05;;;;;;;15.49;100.00;95345.28;1018492;29;20030;-77
2023/10/14 00:19:35;;;;;;;;;;;;;;;15.50;100.00;95347.63;1015514;29;20055;-76
2023/10/14 00:20:07;;;;;;;0.75;0.73;;;;;;;15.45;100.00;95328.47;1016483;29;19918;-77
2023/10/14 00:20:39;;;;;;;0.73;0.65;;;;;;;15.49;100.00;95342.63;1015066;29;20032;-77
2023/10/14 00:21:12;;;;;;;0.95;0.75;;;;;;;15.48;100.00;95343.72;1015066;29;20048;-75
2023/10/14 00:21:43;;;;;;;0.40;0.40;;;;;;;15.50;100.00;95346.84;1012547;29;20024;-75
2023/10/14 00:22:13;;;;;;;0.93;0.65;;;;;;;15.49;100.00;95334.69;1015780;29;20039;-76
2023/10/14 00:22:44;;;;;;;0.17;0.17;;;;;;;15.49;100.00;95345.28;1018770;29;20046;-76
2023/10/14 00:23:14;;;;;;;0.90;0.85;;;;;;;15.41;100.00;95324.88;1018801;29;20042;-76
2023/10/14 00:23:45;;;;;;;0.47;0.30;;;;;;;15.43;100.00;95335.94;1022692;29;20038;-75
2023/10/14 00:24:25;;;;;;;0.75;0.70;;;;;;;15.44;100.00;95340.13;1014994;29;20500;-77
2023/10/14 00:24:58;;;;;;;0.20;0.20;;;;;;;15.43;100.00;95346.50;1012477;29;20127;-76
2023/10/14 00:25:32;;;;;;;0.55;0.25;;;;;;;15.41;100.00;95340.72;1017183;29;20028;-76
2023/10/14 00:26:05;;;;;;;12.25;1.55;;;;;;;15.40;100.00;95339.19;1019146;29;20024;-76
2023/10/14 00:26:36;;;;;;;0.73;0.73;;;;;;;15.33;100.00;95334.31;1021359;29;20070;-77
2023/10/14 00:27:07;;;;;;;0.13;0.13;;;;;;;15.35;100.00;95336.66;1014970;29;20103;-76
2023/10/14 00:27:39;;;;;;;0.10;0.08;;;;;;;15.35;100.00;95344.59;1018970;29;20378;-77
2023/10/14 00:28:13;;;;;;;1.15;0.32;;;;;;;15.31;100.00;95339.91;1015037;29;20036;-76
2023/10/14 00:28:50;;;;;;;1.27;0.40;;;;;;;15.25;100.00;95335.81;1018646;29;20027;-76
2023/10/14 00:29:21;;;;;;;0.70;0.70;;;;;;;15.28;100.00;95335.22;1011070;29;20069;-76
2023/10/14 00:30:06;;;;;;;0.75;0.45;;;;;;;15.27;100.00;95332.88;1014990;29;20425;-77
2023/10/14 00:30:38;;;;;;;3.92;0.98;;;;;;;15.31;100.00;95337.25;1022990;29;20086;-78
2023/10/14 00:31:10;;;;;;;0.32;0.32;;;;;;;15.30;100.00;95340.22;1020533;29;20508;-76
2023/10/14 00:31:41;;;;;;;0.52;0.52;;;;;;;15.23;100.00;95330.06;1016448;29;20034;-77
2023/10/14 00:32:12;;;;;;;0.65;0.50;;;;;;;15.25;100.00;95335.81;1022999;28;20032;-76
2023/10/14 00:32:42;;;;;;;10.45;0.43;;;;;;;15.26;100.00;95337.38;1022566;28;20027;-76
2023/10/14 00:33:13;;;;;;;0.13;0.13;;;;;;;15.25;100.00;95330.53;1027111;28;20523;-77
2023/10/14 00:33:45;;;;;;;0.10;0.10;;;;;;;15.23;100.00;95331.94;1026430;28;20064;-77
2023/10/14 00:34:18;;;;;;;1.02;0.63;;;;;;;15.24;100.00;95334.25;1023199;28;20042;-77
2023/10/14 00:34:48;;;;;;;0.68;0.68;;;;;;;15.25;100.00;95335.03;1022954;29;20118;-76
2023/10/14 00:35:19;;;;;;;0.50;0.35;;;;;;;15.21;100.00;95326.94;1016155;29;20498;-76
2023/10/14 00:35:55;;;;;;;1.10;0.55;;;;;;;15.26;100.00;95337.38;1011008;29;20453;-73
2023/10/14 00:36:31;;;;;;;0.00;0.00;;;;;;;15.27;100.00;95335.53;1011050;29;20025;-77
2023/10/14 00:37:01;;;;;;;0.47;0.47;;;;;;;15.28;100.00;95340.50;1018694;29;20038;-75
2023/10/14 00:37:33;;;;;;;0.90;0.52;;;;;;;15.24;100.00;95325.56;1015218;29;20043;-74
2023/10/14 00:38:10;;;;;;;0.98;0.98;;;;;;;15.26;100.00;95329.47;1011055;29;20206;-74
2023/10/14 00:38:45;;;;;;;4.72;0.70;;;;;;;15.29;100.00;95331.50;1010929;29;20859;-75
2023/10/14 00:39:16;;;;;;;0.80;0.40;;;;;;;15.30;100.00;95335.69;1012744;29;20127;-77
2023/10/14 00:40:00;;;;;;;0.30;0.30;;;;;;;15.25;100.00;95329.75;1014137;29;20024;-75
2023/10/14 00:40:31;;;;;;;0.10;0.10;;;;;;;15.26;100.00;95331.34;1019681;29;20131;-75
2023/10/14 00:41:01;;;;;;;0.75;0.55;;;;;;;15.21;100.00;95324.28;1015009;29;20043;-76
2023/10/14 00:41:36;;;;;;;0.65;0.52;;;;;;;15.24;100.00;95326.31;1019076;29;20035;-75
2023/10/14 00:42:08;;;;;;;1.08;0.50;;;;;;;15.24;100.00;95330.84;1022636;29;20507;-75
2023/10/14 00:42:41;;;;;;;0.30;0.22;;;;;;;15.18;100.00;95319.59;1018866;29;20493;-75
2023/10/14 00:43:12;;;;;;;3.58;0.50;;;;;;;15.21;100.00;95328.78;1022703;28;20073;-76
2023/10/14 00:43:42;;;;;;;0.55;0.55;;;;;;;15.16;100.00;95321.78;1021949;28;20034;-74
2023/10/14 00:44:12;;;;;;;0.25;0.25;;;;;;;15.15;100.00;95320.19;1015593;29;20517;-74
2023/10/14 00:44:43;;;;;;;0.38;0.38;;;;;;;15.14;100.00;95323.94;1015302;29;20036;-76
2023/10/14 00:45:13;;;;;;;0.43;0.43;;;;;;;15.13;100.00;95325.03;1015621;29;20086;-75
2023/10/14 00:45:44;;;;;;;0.40;0.40;;;;;;;15.17;100.00;95331.25;1019273;29;20049;-75
2023/10/14 00:46:16;;;;;;;1.17;0.70;;;;;;;15.17;100.00;95333.13;1022572;28;20493;-74
2023/10/14 00:46:49;;;;;;;1.23;1.00;;;;;;;15.08;100.00;95317.19;1026716;28;20034;-76
2023/10/14 00:47:24;;;;;;;0.82;0.50;;;;;;;15.09;100.00;95321.44;1028497;28;21008;-75
2023/10/14 00:47:54;;;;;;;0.75;0.40;;;;;;;15.12;100.00;95328.72;1026663;28;20097;-75
2023/10/14 00:48:28;;;;;;;0.85;0.52;;;;;;;15.12;100.00;95328.72;1026908;28;20087;-74
2023/10/14 00:49:04;;;;;;;0.45;0.28;;;;;;;15.05;100.00;95321.22;1016598;29;20564;-76
2023/10/14 00:49:35;;;;;;;0.00;0.00;;;;;;;15.11;100.00;95319.25;1011846;29;20275;-76
2023/10/14 00:50:26;;;;;;;1.10;0.90;;;;;;;15.09;100.00;95318.78;1018775;29;20032;-75
2023/10/14 00:50:59;;;;;;;;;;;;;;;15.10;100.00;95322.97;1019478;29;20811;-76
2023/10/14 00:51:33;;;;;;;0.13;0.13;;;;;;;15.12;100.00;95320.81;1017125;29;19918;-76
2023/10/14 00:52:09;;;;;;;0.65;0.32;;;;;;;15.08;100.00;95314.56;1018841;29;20035;-75
2023/10/14 00:52:39;;;;;;;0.68;0.68;;;;;;;15.12;100.00;95320.81;1014113;29;20047;-75
2023/10/14 00:53:10;;;;;;;2.20;0.65;;;;;;;15.13;100.00;95322.38;1013109;29;20043;-75
2023/10/14 00:53:51;;;;;;;0.30;0.30;;;;;;;15.11;100.00;95319.25;1018819;29;20035;-74
2023/10/14 00:54:47;;;;;;;1.83;1.23;;;;;;;15.16;100.00;95318.38;1016330;29;20035;-75
2023/10/14 00:55:24;;;;;;;0.68;0.68;;;;;;;15.10;100.00;95317.69;1022209;29;20023;-76
2023/10/14 00:55:54;;;;;;;0.70;0.70;;;;;;;15.11;100.00;95313.19;1017414;29;20032;-76
2023/10/14 00:56:28;;;;;;;1.58;1.48;;;;;;;15.14;100.00;95318.66;1026886;28;20515;-75
2023/10/14 00:57:05;;;;;;;4.38;0.57;;;;;;;15.15;100.00;95319.44;1028000;28;20034;-76
2023/10/14 00:57:39;;;;;;;1.25;1.08;;;;;;;15.16;100.00;95319.13;1024299;28;20500;-75
2023/10/14 00:58:12;;;;;;;3.38;1.55;;;;;;;15.11;100.00;95305.25;1015698;29;20036;-75
2023/10/14 00:58:48;;;;;;;0.35;0.30;;;;;;;15.13;100.00;95309.16;1014848;29;20098;-74
2023/10/14 00:59:19;;;;;;;0.77;0.77;;;;;;;15.17;100.00;95310.13;1022715;29;20110;-74
2023/10/14 00:59:51;;;;;;;1.02;0.93;;;;;;;15.20;100.00;95312.16;1024394;28;20031;-76
2023/10/14 01:00:33;;;;;;;0.45;0.45;;;;;;;15.16;100.00;95299.88;1023994;28;20034;-74
2023/10/14 01:01:06;;;;;;;0.65;0.65;;;;;;;15.22;100.00;95304.69;1020087;29;20069;-76
2023/10/14 01:01:55;;;;;;;0.45;0.45;;;;;;;15.23;100.00;95314.19;1014881;29;20318;-75
2023/10/14 01:02:33;;;;;;;0.70;0.40;;;;;;;15.23;100.00;95306.28;1018352;29;20035;-75
2023/10/14 01:03:09;;;;;;;0.80;0.40;;;;;;;15.25;100.00;95309.38;1018518;29;20560;-75
2023/10/14 01:03:40;;;;;;;9.02;0.90;;;;;;;15.25;100.00;95303.31;1022637;29;20042;-76
2023/10/14 01:04:28;;;;;;;0.10;0.10;;;;;;;15.25;100.00;95309.38;1018745;29;20527;-75
2023/10/14 01:05:13;;;;;;;;;;;;;;;15.26;100.00;95303.03;1023302;29;20175;-74
2023/10/14 01:05:45;;;;;;;1.20;0.65;;;;;;;15.24;100.00;95304.41;1026874;28;19918;-75
2023/10/14 01:06:23;;;;;;;0.20;0.20;;;;;;;15.26;100.00;95300.38;1030786;28;20117;-76
2023/10/14 01:06:58;;;;;;;0.80;0.30;;;;;;;15.25;100.00;95292.75;1029211;28;20034;-76
2023/10/14 01:07:30;;;;;;;1.13;0.68;;;;;;;15.23;100.00;95290.41;1018935;29;20633;-76
2023/10/14 01:08:02;;;;;;;0.32;0.32;;;;;;;15.29;100.00;95294.50;1019470;29;20445;-75
2023/10/14 01:08:37;;;;;;;0.30;0.30;;;;;;;15.33;100.00;95292.81;1014922;29;20035;-75
2023/10/14 01:09:10;;;;;;;1.27;0.17;;;;;;;15.28;100.00;95292.13;1018393;28;20855;-74
2023/10/14 01:10:12;;;;;;;0.73;0.30;;;;;;;15.44;100.00;95295.97;1020014;29;20621;-75
2023/10/14 01:10:42;;;;;;;0.95;0.90;;;;;;;15.41;100.00;95290.50;1017741;29;20722;-75
2023/10/14 01:11:16;;;;;;;0.20;0.13;;;;;;;15.48;100.00;95296.13;1018856;29;20051;-75
2023/10/14 01:11:46;;;;;;;4.65;2.17;;;;;;;15.48;100.00;95293.47;1026223;28;20033;-76
2023/10/14 01:12:17;;;;;;;0.15;0.15;;;;;;;15.57;100.00;95296.97;1010794;29;20028;-75
2023/10/14 01:12:53;;;;;;;1.98;1.10;;;;;;;15.57;100.00;95289.78;1010787;29;20032;-76
2023/10/14 01:13:24;;;;;;;0.40;0.40;;;;;;;15.59;100.00;95286.06;1010397;29;20032;-76
2023/10/14 01:14:00;;;;;;;0.13;0.10;;;;;;;15.66;100.00;95292.50;1016567;29;20044;-75
2023/10/14 01:14:33;;;;;;;0.32;0.32;;;;;;;15.59;100.00;95288.69;1018839;29;20488;-74
2023/10/14 01:15:20;;;;;;;0.45;0.45;;;;;;;15.69;100.00;95291.91;1017516;29;20099;-73
2023/10/14 01:16:02;;;;;;;2.90;1.27;;;;;;;15.67;100.00;95282.72;1018838;29;20059;-77
2023/10/14 01:16:37;;;;;;;0.60;0.50;;;;;;;15.72;100.00;95275.41;1022784;28;20039;-76
2023/10/14 01:17:09;;;;;;;0.52;0.32;;;;;;;15.82;100.00;95282.28;1018873;29;20028;-75
2023/10/14 01:17:42;;;;;;;0.85;0.82;;;;;;;15.90;100.00;95288.72;1022676;29;20027;-75
2023/10/14 01:18:14;;;;;;;0.45;0.45;;;;;;;15.91;100.00;95287.59;1026766;28;20027;-75
2023/10/14 01:18:47;;;;;;;1.08;0.82;;;;;;;15.88;100.00;95282.94;1027845;28;20155;-75
2023/10/14 01:19:22;;;;;;;1.20;0.80;;;;;;;15.90;100.00;95291.34;1029517;28;20484;-76
2023/10/14 01:19:53;;;;;;;1.65;0.90;;;;;;;15.93;100.00;95291.50;1017258;29;20079;-75
2023/10/14 01:20:57;;;;;;;2.70;0.38;;;;;;;15.98;100.00;95283.41;1022615;29;20082;-77
2023/10/14 01:21:28;;;;;;;0.20;0.20;;;;;;;15.97;100.00;95284.53;1023865;28;20031;-76
2023/10/14 01:21:59;;;;;;;3.58;0.50;;;;;;;16.02;100.00;95283.59;1021391;28;20416;-74
2023/10/14 01:22:30;;;;;;;8.13;2.10;;;;;;;16.03;100.00;95282.53;1014609;29;20020;-75
2023/10/14 01:23:07;;;;;;;1.95;0.73;;;;;;;16.03;100.00;95290.47;1019182;29;20609;-76
2023/10/14 01:23:38;;;;;;;0.65;0.45;;;;;;;16.01;100.00;95282.03;1019735;29;20580;-76
2023/10/14 01:24:16;;;;;;;1.00;0.88;;;;;;;16.02;100.00;95288.88;1018475;29;20037;-77
2023/10/14 01:24:46;;;;;;;0.45;0.15;;;;;;;15.99;100.00;95281.56;1018555;29;20032;-77
2023/10/14 01:25:18;;;;;;;0.40;0.20;;;;;;;15.97;100.00;95281.88;1015843;29;20052;-76
2023/10/14 01:25:51;;;;;;;1.70;1.33;;;;;;;16.03;100.00;95279.88;1015901;29;20119;-76
2023/10/14 01:26:23;;;;;;;0.57;0.32;;;;;;;15.97;100.00;95270.50;1018609;29;20020;-75
2023/10/14 01:27:05;;;;;;;1.23;0.60;;;;;;;16.02;100.00;95279.06;1018624;29;20469;-74
2023/10/14 01:27:36;;;;;;;0.28;0.28;;;;;;;16.03;100.00;95283.28;1020511;29;20034;-76
2023/10/14 01:28:12;;;;;;;0.45;0.28;;;;;;;16.06;100.00;95276.56;1016386;29;20031;-74
2023/10/14 01:28:59;;;;;;;0.95;0.57;;;;;;;16.09;100.00;95278.63;1017626;29;20027;-75
2023/10/14 01:29:31;;;;;;;0.28;0.28;;;;;;;16.06;100.00;95268.63;1018654;29;20110;-76
2023/10/14 01:30:08;;;;;;;0.20;0.20;;;;;;;16.13;100.00;95271.63;1014584;29;20031;-74
2023/10/14 01:31:11;;;;;;;0.10;0.10;;;;;;;16.18;100.00;95279.41;1022014;29;20023;-75
2023/10/14 01:31:50;;;;;;;0.65;0.47;;;;;;;16.15;100.00;95273.97;1016166;29;20087;-75
2023/10/14 01:33:15;;;;;;;0.45;0.43;;;;;;;16.12;100.00;95267.41;1015364;29;20064;-77
2023/10/14 01:33:46;;;;;;;3.08;0.57;;;;;;;16.17;100.00;95274.44;1018674;29;20466;-77
2023/10/14 01:34:28;;;;;;;0.73;0.73;;;;;;;16.16;100.00;95268.38;1018723;29;20035;-76
2023/10/14 01:35:00;;;;;;;2.20;0.75;;;;;;;16.06;100.00;95255.41;1018611;29;20058;-75
2023/10/14 01:35:31;;;;;;;1.13;1.05;;;;;;;16.07;100.00;95264.16;1018613;29;20023;-76
2023/10/14 01:36:02;;;;;;;0.63;0.63;;;;;;;16.06;100.00;95273.94;1022651;29;20023;-76
2023/10/14 01:36:37;;;;;;;0.57;0.57;;;;;;;15.98;100.00;95261.47;1018526;29;20122;-77
2023/10/14 01:37:19;;;;;;;0.73;0.38;;;;;;;15.98;100.00;95264.13;1022513;28;20547;-77
2023/10/14 01:37:54;;;;;;;0.20;0.10;;;;;;;15.96;100.00;95264.44;1018571;29;20023;-76
2023/10/14 01:38:24;;;;;;;1.48;0.75;;;;;;;15.99;100.00;95263.03;1018580;29;20532;-77
2023/10/14 01:38:58;;;;;;;0.95;0.50;;;;;;;15.96;100.00;95266.28;1009774;29;20028;-77
2023/10/14 01:39:29;;;;;;;0.32;0.32;;;;;;;15.96;100.00;95261.78;1006941;29;20044;-76
2023/10/14 01:40:16;;;;;;;0.77;0.57;;;;;;;15.95;100.00;95259.44;1009304;29;20394;-76
2023/10/14 01:40:50;;;;;;;0.08;0.08;;;;;;;16.04;100.00;95268.19;1017466;29;20023;-76
2023/10/14 01:41:21;;;;;;;0.15;0.15;;;;;;;16.08;100.00;95266.47;1007041;29;20529;-77
2023/10/14 01:41:53;;;;;;;3.13;1.35;;;;;;;16.05;100.00;95259.16;1014719;29;20024;-75
2023/10/14 01:42:24;;;;;;;2.90;1.30;;;;;;;16.13;100.00;95266.34;1021660;29;20041;-76
2023/10/14 01:43:05;;;;;;;0.43;0.43;;;;;;;16.14;100.00;95261.81;1022549;29;20540;-76
2023/10/14 01:43:36;;;;;;;1.17;0.93;;;;;;;16.16;100.00;95263.09;1026668;28;20704;-77
2023/10/14 01:44:09;;;;;;;3.42;1.00;;;;;;;16.18;100.00;95260.09;1018535;29;20026;-77
2023/10/14 01:44:41;;;;;;;1.40;0.40;;;;;;;16.19;100.00;95257.13;1018718;29;20482;-75
2023/10/14 01:45:11;;;;;;;0.40;0.40;;;;;;;16.28;100.00;95257.16;1007621;29;20033;-74
2023/10/14 01:46:27;;;;;;;0.55;0.43;;;;;;;16.27;100.00;95258.25;1010776;29;20065;-77
2023/10/14 01:47:01;;;;;;;0.47;0.47;;;;;;;16.25;100.00;95255.91;1015112;29;20877;-78
2023/10/14 01:47:32;;;;;;;0.00;0.00;;;;;;;16.27;100.00;95264.34;1016824;29;20383;-75
2023/10/14 01:48:21;;;;;;;0.95;0.95;;;;;;;16.33;100.00;95253.56;1020951;29;20544;-79
2023/10/14 01:48:52;;;;;;;0.20;0.20;;;;;;;16.33;100.00;95256.22;1022355;29;20028;-76
2023/10/14 01:49:23;;;;;;;1.02;0.68;;;;;;;16.38;100.00;95264.03;1019737;29;20520;-76
2023/10/14 01:49:53;;;;;;;1.02;1.02;;;;;;;16.34;100.00;95249.84;1018727;29;20023;-76
2023/10/14 01:50:24;;;;;;;0.63;0.45;;;;;;;16.42;100.00;95259.66;1018499;29;20027;-76
2023/10/14 01:50:55;;;;;;;0.17;0.15;;;;;;;16.39;100.00;95254.97;1022566;29;20025;-76
2023/10/14 01:51:26;;;;;;;1.55;0.90;;;;;;;16.41;100.00;95256.25;1014784;29;20024;-76
2023/10/14 01:51:59;;;;;;;0.82;0.82;;;;;;;16.44;100.00;95257.50;1018375;29;20390;-76
2023/10/14 01:52:31;;;;;;;0.22;0.22;;;;;;;16.54;100.00;95253.75;1007266;29;20124;-76
2023/10/14 01:53:09;;;;;;;0.75;0.75;;;;;;;16.55;100.00;95258.72;1015207;29;20036;-76
2023/10/14 01:53:42;;;;;;;0.65;0.65;;;;;;;16.54;100.00;95257.19;1013366;29;20055;-77
2023/10/14 01:54:13;;;;;;;0.30;0.30;;;;;;;16.56;100.00;95257.63;1020548;29;20082;-76
2023/10/14 01:54:44;;;;;;;0.20;0.20;;;;;;;16.64;100.00;95256.09;1014651;29;20115;-75
2023/10/14 01:55:19;;;;;;;0.35;0.35;;;;;;;16.70;100.00;95255.63;1014811;29;20111;-75
2023/10/14 01:55:57;;;;;;;0.50;0.50;;;;;;;16.68;100.00;95252.50;1020733;29;20038;-76
2023/10/14 01:56:28;;;;;;;0.50;0.50;;;;;;;16.81;100.00;95258.75;1010820;29;20062;-79
2023/10/14 01:56:59;;;;;;;1.10;0.80;;;;;;;16.85;100.00;95261.56;1014777;29;20513;-74
2023/10/14 01:57:29;;;;;;;0.73;0.68;;;;;;;16.85;100.00;95257.03;1014346;29;20175;-76
2023/10/14 01:58:02;;;;;;;0.30;0.30;;;;;;;16.90;100.00;95264.03;1018638;29;20181;-76
2023/10/14 01:58:33;;;;;;;0.52;0.52;;;;;;;16.94;100.00;95260.44;1019151;29;20457;-76
2023/10/14 01:59:04;;;;;;;0.10;0.10;;;;;;;16.99;100.00;95258.72;1018273;29;20030;-75
2023/10/14 01:59:34;;;;;;;0.50;0.50;;;;;;;17.00;100.00;95260.28;1015054;29;20075;-76
2023/10/14 02:00:24;;;;;;;1.70;1.50;;;;;;;16.95;100.00;95250.63;1022511;29;20042;-76
2023/10/14 02:01:00;;;;;;;0.70;0.70;;;;;;;17.02;100.00;95245.63;1022638;29;20031;-78
2023/10/14 02:01:34;;;;;;;0.60;0.60;;;;;;;17.08;100.00;95247.00;1025505;28;20030;-76
2023/10/14 02:02:05;;;;;;;6.53;1.08;;;;;;;16.93;100.00;95231.59;1022606;28;20516;-75
2023/10/14 02:02:39;;;;;;;0.10;0.10;;;;;;;17.17;100.00;95247.00;1021921;29;20036;-77
2023/10/14 02:03:10;;;;;;;2.72;1.08;;;;;;;17.22;100.00;95251.34;1026541;28;20038;-75
2023/10/14 02:03:46;;;;;;;0.55;0.50;;;;;;;17.23;100.00;95250.25;1026977;28;20118;-74
2023/10/14 02:04:17;;;;;;;1.23;0.57;;;;;;;17.23;100.00;95247.59;1029140;28;20311;-78
2023/10/14 02:04:55;;;;;;;0.20;0.20;;;;;;;17.26;100.00;95253.03;1023657;28;20038;-76
2023/10/14 02:05:27;;;;;;;0.47;0.30;;;;;;;17.27;100.00;95251.16;1018399;29;20111;-75
2023/10/14 02:05:58;;;;;;;0.57;0.57;;;;;;;17.28;100.00;95253.50;1018413;29;20535;-75
2023/10/14 02:06:31;;;;;;;0.93;0.65;;;;;;;17.34;100.00;95252.25;1013768;29;20039;-77
2023/10/14 02:07:26;;;;;;;0.40;0.40;;;;;;;17.39;100.00;95244.09;1010682;29;20098;-76
2023/10/14 02:07:52;;;;;;;;;;;;;;;17.46;100.00;95250.78;1018272;29;20503;-75
2023/10/14 02:08:23;;;;;;;1.27;1.20;;;;;;;17.47;100.00;95247.84;1022230;29;19920;-79
2023/10/14 02:08:54;;;;;;;5.15;1.38;;;;;;;17.43;100.00;95244.25;1026170;28;20030;-77
2023/10/14 02:09:29;;;;;;;0.40;0.40;;;;;;;17.45;100.00;95239.41;1018417;29;20032;-76
2023/10/14 02:10:03;;;;;;;0.82;0.82;;;;;;;17.48;100.00;95251.25;1013466;29;20042;-77
2023/10/14 02:10:35;;;;;;;5.18;0.73;;;;;;;17.45;100.00;95239.41;1022563;29;20031;-76
2023/10/14 02:11:06;;;;;;;0.52;0.40;;;;;;;17.50;100.00;95252.47;1021303;29;20452;-78
2023/10/14 02:11:38;;;;;;;0.47;0.30;;;;;;;17.51;100.00;95251.41;1024540;28;20034;-77
2023/10/14 02:12:08;;;;;;;3.17;0.35;;;;;;;17.51;100.00;95251.41;1025791;28;20472;-76
2023/10/14 02:12:42;;;;;;;0.60;0.50;;;;;;;17.42;100.00;95238.16;1017863;29;20048;-76
2023/10/14 02:13:19;;;;;;;0.20;0.20;;;;;;;17.45;100.00;95247.38;1017623;29;20038;-74
2023/10/14 02:13:50;;;;;;;1.13;0.63;;;;;;;17.48;100.00;95254.69;1023673;28;20074;-75
2023/10/14 02:14:22;;;;;;;0.93;0.93;;;;;;;17.43;100.00;95246.91;1018548;29;20027;-79
2023/10/14 02:14:59;;;;;;;1.33;0.80;;;;;;;17.48;100.00;95246.72;1018419;29;20032;-76
2023/10/14 02:15:30;;;;;;;0.35;0.17;;;;;;;17.44;100.00;95246.59;1008813;29;20116;-77
2023/10/14 02:16:06;;;;;;;0.00;0.00;;;;;;;17.40;100.00;95247.53;1011789;29;20029;-77
2023/10/14 02:16:44;;;;;;;0.63;0.52;;;;;;;17.43;100.00;95252.19;1014450;29;20088;-75
2023/10/14 02:17:16;;;;;;;1.38;0.60;;;;;;;17.42;100.00;95248.78;1019150;29;20043;-77
2023/10/14 02:17:47;;;;;;;0.75;0.75;;;;;;;17.47;100.00;95247.03;1018606;29;20031;-76
2023/10/14 02:18:22;;;;;;;0.28;0.28;;;;;;;17.44;100.00;95245.81;1018448;29;20050;-79
2023/10/14 02:19:17;;;;;;;1.27;0.73;;;;;;;17.48;100.00;95246.72;1010930;29;20028;-77
2023/10/14 02:19:49;;;;;;;3.08;1.42;;;;;;;17.48;100.00;95252.03;1018673;29;20023;-77
2023/10/14 02:20:20;;;;;;;3.95;1.30;;;;;;;17.52;100.00;95252.94;1014641;29;20036;-77
2023/10/14 02:21:16;;;;;;;0.90;0.40;;;;;;;17.52;100.00;95247.66;1018246;29;20047;-73
2023/10/14 02:21:43;;;;;;;0.30;0.30;;;;;;;17.52;100.00;95252.19;1015584;29;20040;-77
2023/10/14 02:22:13;;;;;;;0.13;0.13;;;;;;;17.59;100.00;95258.53;1014457;29;20035;-76
2023/10/14 02:22:45;;;;;;;0.43;0.43;;;;;;;17.52;100.00;95247.66;1014050;29;20032;-77
2023/10/14 02:23:16;;;;;;;0.20;0.20;;;;;;;17.57;100.00;95254.63;1010594;29;20060;-76
2023/10/14 02:23:49;;;;;;;3.15;2.17;;;;;;;17.58;100.00;95254.34;1011275;29;20375;-76
2023/10/14 02:24:19;;;;;;;0.95;0.75;;;;;;;17.56;100.00;95253.09;1014980;29;20035;-76
2023/10/14 02:24:54;;;;;;;0.10;0.10;;;;;;;17.58;100.00;95253.56;1015761;29;20078;-75
2023/10/14 02:25:27;;;;;;;0.77;0.45;;;;;;;17.55;100.00;95257.63;1022656;28;20283;-76
2023/10/14 02:25:59;;;;;;;0.85;0.50;;;;;;;17.52;100.00;95246.88;1022613;29;20035;-77
2023/10/14 02:26:33;;;;;;;0.10;0.10;;;;;;;17.51;100.00;95243.44;1022823;29;20035;-77
2023/10/14 02:27:11;;;;;;;0.60;0.60;;;;;;;17.52;100.00;95252.94;1016032;29;20533;-76
2023/10/14 02:27:44;;;;;;;1.95;1.00;;;;;;;17.53;100.00;95253.72;1018870;29;20046;-78
2023/10/14 02:28:15;;;;;;;0.10;0.10;;;;;;;17.59;100.00;95258.53;1013361;29;20096;-77
2023/10/14 02:28:45;;;;;;;0.43;0.43;;;;;;;17.55;100.00;95252.31;1018145;29;20036;-77
2023/10/14 02:29:16;;;;;;;0.15;0.15;;;;;;;17.60;100.00;95252.13;1023042;29;20114;-78
2023/10/14 02:29:48;;;;;;;0.65;0.30;;;;;;;17.66;100.00;95260.69;1019157;29;20035;-75
2023/10/14 02:30:18;;;;;;;1.33;1.23;;;;;;;17.67;100.00;95255.09;1022872;29;20031;-77
2023/10/14 02:30:51;;;;;;;1.65;1.13;;;;;;;17.66;100.00;95258.81;1018790;29;20032;-75
2023/10/14 02:32:00;;;;;;;0.60;0.60;;;;;;;17.68;100.00;95261.94;1018864;29;20031;-76
2023/10/14 02:32:30;;;;;;;9.85;1.13;;;;;;;17.66;100.00;95258.81;1018199;29;20556;-77
2023/10/14 02:33:01;;;;;;;0.30;0.30;;;;;;;17.67;100.00;95260.38;1019963;29;20023;-74
2023/10/14 02:33:31;;;;;;;0.38;0.38;;;;;;;17.68;100.00;95261.16;1012765;29;20429;-73
2023/10/14 02:34:06;;;;;;;0.85;0.30;;;;;;;17.66;100.00;95258.81;1015129;29;20024;-76
2023/10/14 02:34:38;;;;;;;1.45;0.88;;;;;;;17.64;100.00;95257.59;1014273;29;20494;-76
2023/10/14 02:35:08;;;;;;;0.55;0.52;;;;;;;17.60;100.00;95254.78;1015704;28;20115;-76
2023/10/14 02:35:39;;;;;;;0.70;0.70;;;;;;;17.60;100.00;95260.09;1018969;29;20031;-74
2023/10/14 02:36:14;;;;;;;0.50;0.50;;;;;;;17.59;100.00;95258.53;1015238;29;20039;-76
2023/10/14 02:36:50;;;;;;;2.33;0.85;;;;;;;17.60;100.00;95254.00;1018206;29;20505;-76
2023/10/14 02:37:22;;;;;;;1.65;0.20;;;;;;;17.60;100.00;95252.13;1016456;29;20052;-78
2023/10/14 02:37:54;;;;;;;0.88;0.88;;;;;;;17.65;100.00;95262.56;1016457;29;20052;-75
2023/10/14 02:38:24;;;;;;;0.38;0.38;;;;;;;17.67;100.00;95265.69;1014970;29;20040;-79
2023/10/14 02:38:56;;;;;;;0.43;0.43;;;;;;;17.61;100.00;95255.59;1016684;29;20123;-77
2023/10/14 02:39:27;;;;;;;2.30;0.40;;;;;;;17.66;100.00;95264.13;1011046;29;20033;-76
2023/10/14 02:39:58;;;;;;;0.40;0.40;;;;;;;17.64;100.00;95266.34;1011374;29;20067;-76
2023/10/14 02:40:29;;;;;;;0.00;0.00;;;;;;;17.67;100.00;95260.38;1015435;29;20028;-77
2023/10/14 02:41:04;;;;;;;0.35;0.25;;;;;;;17.68;100.00;95264.59;1019662;28;20531;-75
2023/10/14 02:41:34;;;;;;;10.32;1.30;;;;;;;17.70;100.00;95266.91;1018939;29;20408;-78